ENNM/OSY METAR and TAF weather

Enter ICAO airport designator
Station Type Date Time Source
ENNM METAR 2020/10/21 19:50 UTC NOAA

ENNM 211950Z 07005KT 040V110 9999 FEW007 SCT014 BKN017 02/01 Q1000


Station Type Date Time Source
ENNM Decoded METAR 2020/10/21 19:50 UTC NOAA

Namsos Lufthavn, Norway (ENNM) 64-28N 011-35E 2M
Oct 21, 2020 - 03:50 PM EDT / 2020.10.21 1950 UTC
Wind: from the ENE (070 degrees) at 6 MPH (5 KT) (direction variable):0
Visibility: greater than 7 mile(s):0
Sky conditions: mostly cloudy
Temperature: 35 F (2 C)
Windchill: 30 F (-1 C):1
Dew Point: 33 F (1 C)
Relative Humidity: 93%
Pressure (altimeter): 29.53 in. Hg (1000 hPa)
ob: ENNM 211950Z 07005KT 040V110 9999 FEW007 SCT014 BKN017 02/01 Q1000
cycle: 20

Station Type Date Time Source
ENNM TAF UTC NOAA

Error!

Example: see airport list